Alpha, New Jersey
Current Conditions -  °F | °C
As of 10:51 AM on Wednesday 22 Oct 2014 (Local Time) from KABE Reporting Station
Overcast Overcast  
Wind Chill: 13°   Ceiling: 1900
Heat Index: 13°   Visibility: 10mi
Dew Point:   Wind: 15mph
Humidity: 80%   Direction: 30°NNE
Pressure: 29.96"   Gusts: NA
Location:  40.7083°N, 75.1472°W
Report Text: KABE 221451Z 03013KT 10SM BKN019 OVC050 13/09 A2996 RMK AO2 RAE31 SLP144 P0001 60005 T01280094 51008
Loading
Personal Weather Stations






























Interactive Weather Map
Tropical Storm Tracking
New forecast layout! Learn more

10-Day Weather Forecast

Advertisements
Track Severe Weather on mobile